sensor_id;sensor_type;location;lat;lon;timestamp;temperature;humidity
21216;DHT22;10765;50.954;5.322;2023-09-08T00:00:16;18.30;1.00
21216;DHT22;10765;50.954;5.322;2023-09-08T00:02:43;18.20;1.00
21216;DHT22;10765;50.954;5.322;2023-09-08T00:05:10;18.20;1.00
21216;DHT22;10765;50.954;5.322;2023-09-08T00:07:37;18.10;1.00
21216;DHT22;10765;50.954;5.322;2023-09-08T00:10:04;18.00;1.00
21216;DHT22;10765;50.954;5.322;2023-09-08T00:12:32;18.00;1.00
21216;DHT22;10765;50.954;5.322;2023-09-08T00:15:00;18.00;99.90
21216;DHT22;10765;50.954;5.322;2023-09-08T00:17:27;17.90;99.90
21216;DHT22;10765;50.954;5.322;2023-09-08T00:19:57;17.90;99.90
21216;DHT22;10765;50.954;5.322;2023-09-08T00:22:24;17.90;99.90
21216;DHT22;10765;50.954;5.322;2023-09-08T00:24:51;17.80;99.90
21216;DHT22;10765;50.954;5.322;2023-09-08T00:27:18;17.80;99.90
21216;DHT22;10765;50.954;5.322;2023-09-08T00:29:44;17.80;1.00
21216;DHT22;10765;50.954;5.322;2023-09-08T00:32:13;17.80;1.00
21216;DHT22;10765;50.954;5.322;2023-09-08T00:34:41;17.80;1.00
21216;DHT22;10765;50.954;5.322;2023-09-08T00:37:08;17.80;99.90
21216;DHT22;10765;50.954;5.322;2023-09-08T00:39:35;17.70;99.90
21216;DHT22;10765;50.954;5.322;2023-09-08T00:42:02;17.70;99.90
21216;DHT22;10765;50.954;5.322;2023-09-08T00:44:29;17.60;99.90
21216;DHT22;10765;50.954;5.322;2023-09-08T00:46:56;17.60;1.00
21216;DHT22;10765;50.954;5.322;2023-09-08T00:49:25;17.50;1.00
21216;DHT22;10765;50.954;5.322;2023-09-08T00:51:52;17.50;23.30
21216;DHT22;10765;50.954;5.322;2023-09-08T00:54:19;17.50;78.30
21216;DHT22;10765;50.954;5.322;2023-09-08T00:56:47;17.40;99.90
21216;DHT22;10765;50.954;5.322;2023-09-08T00:59:15;17.50;1.00
21216;DHT22;10765;50.954;5.322;2023-09-08T01:01:42;17.40;1.00
21216;DHT22;10765;50.954;5.322;2023-09-08T01:04:09;17.40;1.00
21216;DHT22;10765;50.954;5.322;2023-09-08T01:06:38;17.40;96.20
21216;DHT22;10765;50.954;5.322;2023-09-08T01:09:05;17.40;99.90
21216;DHT22;10765;50.954;5.322;2023-09-08T01:11:33;17.40;1.00
21216;DHT22;10765;50.954;5.322;2023-09-08T01:14:00;17.40;99.90
21216;DHT22;10765;50.954;5.322;2023-09-08T01:16:27;17.30;99.90
21216;DHT22;10765;50.954;5.322;2023-09-08T01:18:54;17.30;95.90
21216;DHT22;10765;50.954;5.322;2023-09-08T01:27:19;17.30;99.90
21216;DHT22;10765;50.954;5.322;2023-09-08T01:29:49;17.30;99.90
21216;DHT22;10765;50.954;5.322;2023-09-08T01:32:17;17.30;99.90
21216;DHT22;10765;50.954;5.322;2023-09-08T01:34:44;17.20;99.90
21216;DHT22;10765;50.954;5.322;2023-09-08T01:37:11;17.20;99.90
21216;DHT22;10765;50.954;5.322;2023-09-08T01:39:38;17.20;99.90
21216;DHT22;10765;50.954;5.322;2023-09-08T01:42:05;17.10;99.90
21216;DHT22;10765;50.954;5.322;2023-09-08T01:44:34;17.10;99.90
21216;DHT22;10765;50.954;5.322;2023-09-08T01:47:01;17.10;99.90
21216;DHT22;10765;50.954;5.322;2023-09-08T01:49:28;17.10;1.00
21216;DHT22;10765;50.954;5.322;2023-09-08T01:51:55;17.00;99.90
21216;DHT22;10765;50.954;5.322;2023-09-08T01:54:22;17.10;1.00
21216;DHT22;10765;50.954;5.322;2023-09-08T01:56:49;17.00;1.00
21216;DHT22;10765;50.954;5.322;2023-09-08T01:59:16;17.00;1.00
21216;DHT22;10765;50.954;5.322;2023-09-08T02:01:45;17.00;99.90
21216;DHT22;10765;50.954;5.322;2023-09-08T02:04:12;17.00;1.00
21216;DHT22;10765;50.954;5.322;2023-09-08T02:06:38;17.00;1.00
21216;DHT22;10765;50.954;5.322;2023-09-08T02:09:05;17.00;1.00
21216;DHT22;10765;50.954;5.322;2023-09-08T02:11:32;16.90;1.00
21216;DHT22;10765;50.954;5.322;2023-09-08T02:13:59;17.00;99.90
21216;DHT22;10765;50.954;5.322;2023-09-08T02:16:26;16.90;1.00
21216;DHT22;10765;50.954;5.322;2023-09-08T02:18:55;17.00;1.00
21216;DHT22;10765;50.954;5.322;2023-09-08T02:21:22;16.90;1.00
21216;DHT22;10765;50.954;5.322;2023-09-08T02:23:49;16.80;1.00
21216;DHT22;10765;50.954;5.322;2023-09-08T02:26:16;17.00;1.00
21216;DHT22;10765;50.954;5.322;2023-09-08T02:28:43;17.00;99.90
21216;DHT22;10765;50.954;5.322;2023-09-08T02:31:10;16.90;1.00
21216;DHT22;10765;50.954;5.322;2023-09-08T02:33:37;16.80;12.20
21216;DHT22;10765;50.954;5.322;2023-09-08T02:36:05;16.80;99.90
21216;DHT22;10765;50.954;5.322;2023-09-08T02:38:32;16.80;99.90
21216;DHT22;10765;50.954;5.322;2023-09-08T02:40:59;16.80;1.00
21216;DHT22;10765;50.954;5.322;2023-09-08T02:43:26;16.80;1.00
21216;DHT22;10765;50.954;5.322;2023-09-08T02:45:53;16.80;1.00
21216;DHT22;10765;50.954;5.322;2023-09-08T02:48:20;16.80;99.90
21216;DHT22;10765;50.954;5.322;2023-09-08T02:50:47;16.80;1.00
21216;DHT22;10765;50.954;5.322;2023-09-08T02:53:15;16.90;99.90
21216;DHT22;10765;50.954;5.322;2023-09-08T02:55:42;16.90;1.00
21216;DHT22;10765;50.954;5.322;2023-09-08T02:58:09;16.90;99.90
21216;DHT22;10765;50.954;5.322;2023-09-08T03:00:36;16.80;1.00
21216;DHT22;10765;50.954;5.322;2023-09-08T03:03:03;16.90;1.00
21216;DHT22;10765;50.954;5.322;2023-09-08T03:05:31;16.80;80.70
21216;DHT22;10765;50.954;5.322;2023-09-08T03:07:58;16.80;99.90
21216;DHT22;10765;50.954;5.322;2023-09-08T03:10:26;16.80;99.90
21216;DHT22;10765;50.954;5.322;2023-09-08T03:12:54;16.70;1.00
21216;DHT22;10765;50.954;5.322;2023-09-08T03:15:21;16.70;1.00
21216;DHT22;10765;50.954;5.322;2023-09-08T03:17:48;16.70;1.00
21216;DHT22;10765;50.954;5.322;2023-09-08T03:20:15;16.70;99.90
21216;DHT22;10765;50.954;5.322;2023-09-08T03:22:41;16.70;52.40
21216;DHT22;10765;50.954;5.322;2023-09-08T03:25:08;16.70;1.00
21216;DHT22;10765;50.954;5.322;2023-09-08T03:27:37;16.70;1.00
21216;DHT22;10765;50.954;5.322;2023-09-08T03:30:05;16.60;1.00
21216;DHT22;10765;50.954;5.322;2023-09-08T03:32:32;16.70;1.00
21216;DHT22;10765;50.954;5.322;2023-09-08T03:34:58;16.70;99.90
21216;DHT22;10765;50.954;5.322;2023-09-08T03:37:25;16.70;99.90
21216;DHT22;10765;50.954;5.322;2023-09-08T03:39:52;16.80;93.80
21216;DHT22;10765;50.954;5.322;2023-09-08T03:42:19;16.80;1.00
21216;DHT22;10765;50.954;5.322;2023-09-08T03:44:47;16.80;99.90
21216;DHT22;10765;50.954;5.322;2023-09-08T03:47:14;16.80;1.00
21216;DHT22;10765;50.954;5.322;2023-09-08T03:49:41;16.80;99.90
21216;DHT22;10765;50.954;5.322;2023-09-08T03:52:08;16.80;99.90
21216;DHT22;10765;50.954;5.322;2023-09-08T03:54:36;16.80;99.90
21216;DHT22;10765;50.954;5.322;2023-09-08T03:57:04;16.80;99.90
21216;DHT22;10765;50.954;5.322;2023-09-08T03:59:31;16.90;1.00
21216;DHT22;10765;50.954;5.322;2023-09-08T04:01:59;16.80;1.00
21216;DHT22;10765;50.954;5.322;2023-09-08T04:04:27;16.80;1.00
21216;DHT22;10765;50.954;5.322;2023-09-08T04:06:54;16.90;99.90
21216;DHT22;10765;50.954;5.322;2023-09-08T04:09:21;16.90;1.00
21216;DHT22;10765;50.954;5.322;2023-09-08T04:11:48;16.90;1.00
21216;DHT22;10765;50.954;5.322;2023-09-08T04:14:14;16.80;52.30
21216;DHT22;10765;50.954;5.322;2023-09-08T04:16:41;16.90;99.90
21216;DHT22;10765;50.954;5.322;2023-09-08T04:19:09;16.90;1.00
21216;DHT22;10765;50.954;5.322;2023-09-08T04:21:36;16.90;1.00
21216;DHT22;10765;50.954;5.322;2023-09-08T04:24:04;16.90;99.90
21216;DHT22;10765;50.954;5.322;2023-09-08T04:26:32;16.80;99.90
21216;DHT22;10765;50.954;5.322;2023-09-08T04:28:59;16.80;1.00
21216;DHT22;10765;50.954;5.322;2023-09-08T04:31:26;16.70;1.00
21216;DHT22;10765;50.954;5.322;2023-09-08T04:33:53;16.60;1.00
21216;DHT22;10765;50.954;5.322;2023-09-08T04:36:22;16.60;1.00
21216;DHT22;10765;50.954;5.322;2023-09-08T04:38:48;16.60;1.00
21216;DHT22;10765;50.954;5.322;2023-09-08T04:41:15;16.50;1.00
21216;DHT22;10765;50.954;5.322;2023-09-08T04:43:42;16.50;1.00
21216;DHT22;10765;50.954;5.322;2023-09-08T04:46:09;16.60;1.00
21216;DHT22;10765;50.954;5.322;2023-09-08T04:48:36;16.60;1.00
21216;DHT22;10765;50.954;5.322;2023-09-08T04:51:03;16.50;1.00
21216;DHT22;10765;50.954;5.322;2023-09-08T04:53:31;16.50;16.20
21216;DHT22;10765;50.954;5.322;2023-09-08T04:55:58;16.50;99.90
21216;DHT22;10765;50.954;5.322;2023-09-08T04:58:25;16.60;99.90
21216;DHT22;10765;50.954;5.322;2023-09-08T05:00:53;16.60;1.00
21216;DHT22;10765;50.954;5.322;2023-09-08T05:03:19;16.60;1.00
21216;DHT22;10765;50.954;5.322;2023-09-08T05:05:46;16.70;1.00
21216;DHT22;10765;50.954;5.322;2023-09-08T05:08:13;16.70;1.00
21216;DHT22;10765;50.954;5.322;2023-09-08T05:10:43;16.70;1.00
21216;DHT22;10765;50.954;5.322;2023-09-08T05:13:10;16.70;43.10
21216;DHT22;10765;50.954;5.322;2023-09-08T05:15:37;16.70;1.00
21216;DHT22;10765;50.954;5.322;2023-09-08T05:18:05;16.70;98.20
21216;DHT22;10765;50.954;5.322;2023-09-08T05:20:32;16.70;99.90
21216;DHT22;10765;50.954;5.322;2023-09-08T05:22:59;16.90;1.00
21216;DHT22;10765;50.954;5.322;2023-09-08T05:25:26;16.90;99.90
21216;DHT22;10765;50.954;5.322;2023-09-08T05:27:54;17.10;1.00
21216;DHT22;10765;50.954;5.322;2023-09-08T05:30:21;17.10;1.00
21216;DHT22;10765;50.954;5.322;2023-09-08T05:32:48;17.10;99.90
21216;DHT22;10765;50.954;5.322;2023-09-08T05:35:16;17.20;99.90
21216;DHT22;10765;50.954;5.322;2023-09-08T05:37:42;17.30;15.20
21216;DHT22;10765;50.954;5.322;2023-09-08T05:40:10;17.30;99.90
21216;DHT22;10765;50.954;5.322;2023-09-08T05:42:37;17.30;1.00
21216;DHT22;10765;50.954;5.322;2023-09-08T05:45:06;17.50;99.90
21216;DHT22;10765;50.954;5.322;2023-09-08T05:47:33;17.40;1.00
21216;DHT22;10765;50.954;5.322;2023-09-08T05:50:01;17.70;1.00
21216;DHT22;10765;50.954;5.322;2023-09-08T05:52:28;18.10;40.90
21216;DHT22;10765;50.954;5.322;2023-09-08T05:54:55;18.50;99.90
21216;DHT22;10765;50.954;5.322;2023-09-08T05:57:22;18.60;1.00
21216;DHT22;10765;50.954;5.322;2023-09-08T05:59:48;18.80;99.90
21216;DHT22;10765;50.954;5.322;2023-09-08T06:02:17;19.10;99.90
21216;DHT22;10765;50.954;5.322;2023-09-08T06:04:44;19.60;13.80
21216;DHT22;10765;50.954;5.322;2023-09-08T06:07:10;20.40;95.70
21216;DHT22;10765;50.954;5.322;2023-09-08T06:09:37;21.10;1.00
21216;DHT22;10765;50.954;5.322;2023-09-08T06:12:05;21.80;99.90
21216;DHT22;10765;50.954;5.322;2023-09-08T06:14:32;22.50;35.50
21216;DHT22;10765;50.954;5.322;2023-09-08T06:16:59;22.90;1.00
21216;DHT22;10765;50.954;5.322;2023-09-08T06:19:27;23.50;1.00
21216;DHT22;10765;50.954;5.322;2023-09-08T06:21:54;24.00;1.00
21216;DHT22;10765;50.954;5.322;2023-09-08T06:24:21;24.30;1.00
21216;DHT22;10765;50.954;5.322;2023-09-08T06:26:48;24.60;1.00
21216;DHT22;10765;50.954;5.322;2023-09-08T06:29:15;25.00;1.00
21216;DHT22;10765;50.954;5.322;2023-09-08T06:31:42;25.60;1.00
21216;DHT22;10765;50.954;5.322;2023-09-08T06:34:09;26.30;99.90
21216;DHT22;10765;50.954;5.322;2023-09-08T06:36:37;26.90;99.90
21216;DHT22;10765;50.954;5.322;2023-09-08T06:39:04;27.50;99.90
21216;DHT22;10765;50.954;5.322;2023-09-08T06:41:31;28.10;99.90
21216;DHT22;10765;50.954;5.322;2023-09-08T06:43:57;28.40;99.90
21216;DHT22;10765;50.954;5.322;2023-09-08T06:46:24;28.70;99.90
21216;DHT22;10765;50.954;5.322;2023-09-08T06:48:51;28.90;99.90
21216;DHT22;10765;50.954;5.322;2023-09-08T06:51:18;29.20;99.90
21216;DHT22;10765;50.954;5.322;2023-09-08T06:53:54;29.70;99.90
21216;DHT22;10765;50.954;5.322;2023-09-08T06:56:21;30.10;99.90
21216;DHT22;10765;50.954;5.322;2023-09-08T06:58:48;30.20;99.90
21216;DHT22;10765;50.954;5.322;2023-09-08T07:01:15;30.50;99.90
21216;DHT22;10765;50.954;5.322;2023-09-08T07:03:42;30.60;99.90
21216;DHT22;10765;50.954;5.322;2023-09-08T07:06:09;31.00;99.90
21216;DHT22;10765;50.954;5.322;2023-09-08T07:08:36;31.70;99.90
21216;DHT22;10765;50.954;5.322;2023-09-08T07:11:04;32.10;99.90
21216;DHT22;10765;50.954;5.322;2023-09-08T07:13:31;32.10;99.90
21216;DHT22;10765;50.954;5.322;2023-09-08T07:15:58;32.50;99.90
21216;DHT22;10765;50.954;5.322;2023-09-08T07:18:25;32.90;99.90
21216;DHT22;10765;50.954;5.322;2023-09-08T07:20:52;33.10;99.90
21216;DHT22;10765;50.954;5.322;2023-09-08T07:23:19;33.00;99.90
21216;DHT22;10765;50.954;5.322;2023-09-08T07:25:46;33.20;99.90
21216;DHT22;10765;50.954;5.322;2023-09-08T07:28:15;33.50;99.90
21216;DHT22;10765;50.954;5.322;2023-09-08T07:30:42;34.10;99.90
21216;DHT22;10765;50.954;5.322;2023-09-08T07:33:09;34.40;99.90
21216;DHT22;10765;50.954;5.322;2023-09-08T07:35:36;34.70;99.90
21216;DHT22;10765;50.954;5.322;2023-09-08T07:38:04;35.00;99.90
21216;DHT22;10765;50.954;5.322;2023-09-08T07:40:32;35.30;99.90
21216;DHT22;10765;50.954;5.322;2023-09-08T07:42:59;35.00;99.90
21216;DHT22;10765;50.954;5.322;2023-09-08T07:45:27;34.60;99.90
21216;DHT22;10765;50.954;5.322;2023-09-08T07:47:54;33.50;99.90
21216;DHT22;10765;50.954;5.322;2023-09-08T07:50:23;34.50;99.90
21216;DHT22;10765;50.954;5.322;2023-09-08T07:52:51;35.20;99.90
21216;DHT22;10765;50.954;5.322;2023-09-08T07:55:19;35.50;99.90
21216;DHT22;10765;50.954;5.322;2023-09-08T07:57:49;35.80;99.90
21216;DHT22;10765;50.954;5.322;2023-09-08T08:00:17;36.70;99.90
21216;DHT22;10765;50.954;5.322;2023-09-08T08:02:48;37.00;99.90
21216;DHT22;10765;50.954;5.322;2023-09-08T08:05:15;37.10;99.90
21216;DHT22;10765;50.954;5.322;2023-09-08T08:07:43;37.20;99.90
21216;DHT22;10765;50.954;5.322;2023-09-08T08:10:10;37.30;99.90
21216;DHT22;10765;50.954;5.322;2023-09-08T08:12:37;37.50;99.90
21216;DHT22;10765;50.954;5.322;2023-09-08T08:15:05;37.60;99.90
21216;DHT22;10765;50.954;5.322;2023-09-08T08:17:32;38.00;99.90
21216;DHT22;10765;50.954;5.322;2023-09-08T08:20:02;39.10;99.90
21216;DHT22;10765;50.954;5.322;2023-09-08T08:22:32;38.40;99.90
21216;DHT22;10765;50.954;5.322;2023-09-08T08:24:59;38.50;99.90
21216;DHT22;10765;50.954;5.322;2023-09-08T08:27:26;39.90;99.90
21216;DHT22;10765;50.954;5.322;2023-09-08T08:29:53;38.30;99.90
21216;DHT22;10765;50.954;5.322;2023-09-08T08:32:20;38.50;99.90
21216;DHT22;10765;50.954;5.322;2023-09-08T08:34:47;38.20;99.90
21216;DHT22;10765;50.954;5.322;2023-09-08T08:37:15;39.40;99.90
21216;DHT22;10765;50.954;5.322;2023-09-08T08:39:42;39.90;99.90
21216;DHT22;10765;50.954;5.322;2023-09-08T08:42:09;39.60;99.90
21216;DHT22;10765;50.954;5.322;2023-09-08T08:44:37;39.50;99.90
21216;DHT22;10765;50.954;5.322;2023-09-08T08:47:07;40.10;99.90
21216;DHT22;10765;50.954;5.322;2023-09-08T08:49:34;41.10;99.90
21216;DHT22;10765;50.954;5.322;2023-09-08T08:52:03;41.10;99.90
21216;DHT22;10765;50.954;5.322;2023-09-08T08:54:34;41.10;99.90
21216;DHT22;10765;50.954;5.322;2023-09-08T08:57:04;41.20;99.90
21216;DHT22;10765;50.954;5.322;2023-09-08T08:59:31;41.20;99.90
21216;DHT22;10765;50.954;5.322;2023-09-08T09:01:59;42.20;99.90
21216;DHT22;10765;50.954;5.322;2023-09-08T09:04:26;43.10;99.90
21216;DHT22;10765;50.954;5.322;2023-09-08T09:06:53;42.60;99.90
21216;DHT22;10765;50.954;5.322;2023-09-08T09:09:20;43.20;99.90
21216;DHT22;10765;50.954;5.322;2023-09-08T09:11:49;43.00;99.90
21216;DHT22;10765;50.954;5.322;2023-09-08T09:14:17;43.70;99.90
21216;DHT22;10765;50.954;5.322;2023-09-08T09:16:44;43.00;99.90
21216;DHT22;10765;50.954;5.322;2023-09-08T09:19:18;43.00;99.90
21216;DHT22;10765;50.954;5.322;2023-09-08T09:21:51;42.60;99.90
21216;DHT22;10765;50.954;5.322;2023-09-08T09:24:29;42.70;99.90
21216;DHT22;10765;50.954;5.322;2023-09-08T09:26:58;43.20;99.90
21216;DHT22;10765;50.954;5.322;2023-09-08T09:29:25;44.20;99.90
21216;DHT22;10765;50.954;5.322;2023-09-08T09:31:54;45.20;99.90
21216;DHT22;10765;50.954;5.322;2023-09-08T09:34:22;45.40;99.90
21216;DHT22;10765;50.954;5.322;2023-09-08T09:36:49;45.40;99.90
21216;DHT22;10765;50.954;5.322;2023-09-08T09:39:17;44.60;99.90
21216;DHT22;10765;50.954;5.322;2023-09-08T09:41:45;44.80;99.90
21216;DHT22;10765;50.954;5.322;2023-09-08T09:44:13;44.40;99.90
21216;DHT22;10765;50.954;5.322;2023-09-08T09:46:43;45.10;99.90
21216;DHT22;10765;50.954;5.322;2023-09-08T09:49:11;45.90;99.90
21216;DHT22;10765;50.954;5.322;2023-09-08T09:51:43;45.80;99.90
21216;DHT22;10765;50.954;5.322;2023-09-08T09:54:11;45.80;99.90
21216;DHT22;10765;50.954;5.322;2023-09-08T09:56:39;46.50;99.90
21216;DHT22;10765;50.954;5.322;2023-09-08T09:59:08;46.40;99.90
21216;DHT22;10765;50.954;5.322;2023-09-08T10:01:37;46.10;99.90
21216;DHT22;10765;50.954;5.322;2023-09-08T10:04:05;46.00;99.90
21216;DHT22;10765;50.954;5.322;2023-09-08T10:06:34;46.70;99.90
21216;DHT22;10765;50.954;5.322;2023-09-08T10:09:02;46.80;99.90
21216;DHT22;10765;50.954;5.322;2023-09-08T10:11:37;46.80;99.90
21216;DHT22;10765;50.954;5.322;2023-09-08T10:14:07;47.30;99.90
21216;DHT22;10765;50.954;5.322;2023-09-08T10:16:39;47.40;99.90
21216;DHT22;10765;50.954;5.322;2023-09-08T10:19:08;47.60;99.90
21216;DHT22;10765;50.954;5.322;2023-09-08T10:21:40;47.90;99.90
21216;DHT22;10765;50.954;5.322;2023-09-08T10:24:13;47.10;99.90
21216;DHT22;10765;50.954;5.322;2023-09-08T10:26:44;48.10;99.90
21216;DHT22;10765;50.954;5.322;2023-09-08T10:29:12;47.60;99.90
21216;DHT22;10765;50.954;5.322;2023-09-08T10:31:42;47.80;99.90
21216;DHT22;10765;50.954;5.322;2023-09-08T10:34:10;48.00;99.90
21216;DHT22;10765;50.954;5.322;2023-09-08T10:36:37;47.60;99.90
21216;DHT22;10765;50.954;5.322;2023-09-08T10:39:27;48.20;99.90
21216;DHT22;10765;50.954;5.322;2023-09-08T10:42:20;48.90;99.90
21216;DHT22;10765;50.954;5.322;2023-09-08T10:44:59;48.10;99.90
21216;DHT22;10765;50.954;5.322;2023-09-08T10:47:54;46.40;99.90
21216;DHT22;10765;50.954;5.322;2023-09-08T10:50:27;47.50;99.90
21216;DHT22;10765;50.954;5.322;2023-09-08T10:53:05;48.40;99.90
21216;DHT22;10765;50.954;5.322;2023-09-08T10:55:36;47.70;99.90
21216;DHT22;10765;50.954;5.322;2023-09-08T10:58:04;47.70;99.90
21216;DHT22;10765;50.954;5.322;2023-09-08T11:00:43;47.90;99.90
21216;DHT22;10765;50.954;5.322;2023-09-08T11:03:13;47.30;99.90
21216;DHT22;10765;50.954;5.322;2023-09-08T11:05:41;48.20;99.90
21216;DHT22;10765;50.954;5.322;2023-09-08T11:08:10;49.20;99.90
21216;DHT22;10765;50.954;5.322;2023-09-08T11:10:37;48.80;99.90
21216;DHT22;10765;50.954;5.322;2023-09-08T11:13:06;48.90;99.90
21216;DHT22;10765;50.954;5.322;2023-09-08T11:15:33;48.60;99.90
21216;DHT22;10765;50.954;5.322;2023-09-08T11:18:05;48.40;99.90
21216;DHT22;10765;50.954;5.322;2023-09-08T11:20:34;48.90;99.90
21216;DHT22;10765;50.954;5.322;2023-09-08T11:23:02;48.40;99.90
21216;DHT22;10765;50.954;5.322;2023-09-08T11:25:32;48.80;99.90
21216;DHT22;10765;50.954;5.322;2023-09-08T11:28:00;49.70;99.90
21216;DHT22;10765;50.954;5.322;2023-09-08T11:30:27;49.70;99.90
21216;DHT22;10765;50.954;5.322;2023-09-08T11:32:54;49.50;99.90
21216;DHT22;10765;50.954;5.322;2023-09-08T11:35:26;49.30;99.90
21216;DHT22;10765;50.954;5.322;2023-09-08T11:37:59;49.10;99.90
21216;DHT22;10765;50.954;5.322;2023-09-08T11:40:27;48.90;99.90
21216;DHT22;10765;50.954;5.322;2023-09-08T11:42:54;49.60;99.90
21216;DHT22;10765;50.954;5.322;2023-09-08T11:45:21;49.40;99.90
21216;DHT22;10765;50.954;5.322;2023-09-08T11:47:49;49.60;99.90
21216;DHT22;10765;50.954;5.322;2023-09-08T11:50:18;49.20;99.90
21216;DHT22;10765;50.954;5.322;2023-09-08T11:52:46;49.60;99.90
21216;DHT22;10765;50.954;5.322;2023-09-08T11:55:15;49.80;99.90
21216;DHT22;10765;50.954;5.322;2023-09-08T11:57:44;49.30;99.90
21216;DHT22;10765;50.954;5.322;2023-09-08T12:00:13;49.50;99.90
21216;DHT22;10765;50.954;5.322;2023-09-08T12:02:43;49.70;99.90
21216;DHT22;10765;50.954;5.322;2023-09-08T12:05:19;49.40;99.90
21216;DHT22;10765;50.954;5.322;2023-09-08T12:07:46;48.00;99.90
21216;DHT22;10765;50.954;5.322;2023-09-08T12:10:15;48.40;99.90
21216;DHT22;10765;50.954;5.322;2023-09-08T12:12:44;47.60;99.90
21216;DHT22;10765;50.954;5.322;2023-09-08T12:15:11;48.20;99.90
21216;DHT22;10765;50.954;5.322;2023-09-08T12:17:48;49.20;99.90
21216;DHT22;10765;50.954;5.322;2023-09-08T12:20:16;49.20;99.90
21216;DHT22;10765;50.954;5.322;2023-09-08T12:22:49;49.00;99.90
21216;DHT22;10765;50.954;5.322;2023-09-08T12:25:18;49.00;99.90
21216;DHT22;10765;50.954;5.322;2023-09-08T12:27:50;49.30;99.90
21216;DHT22;10765;50.954;5.322;2023-09-08T12:30:18;49.40;99.90
21216;DHT22;10765;50.954;5.322;2023-09-08T12:32:47;49.60;99.90
21216;DHT22;10765;50.954;5.322;2023-09-08T12:35:20;49.20;99.90
21216;DHT22;10765;50.954;5.322;2023-09-08T12:37:57;49.30;99.90
21216;DHT22;10765;50.954;5.322;2023-09-08T12:40:27;46.50;99.90
21216;DHT22;10765;50.954;5.322;2023-09-08T12:42:55;47.40;99.90
21216;DHT22;10765;50.954;5.322;2023-09-08T12:45:25;48.60;99.90
21216;DHT22;10765;50.954;5.322;2023-09-08T12:47:52;49.20;99.90
21216;DHT22;10765;50.954;5.322;2023-09-08T12:50:20;49.60;99.90
21216;DHT22;10765;50.954;5.322;2023-09-08T12:52:47;49.30;99.90
21216;DHT22;10765;50.954;5.322;2023-09-08T12:55:14;49.70;99.90
21216;DHT22;10765;50.954;5.322;2023-09-08T12:57:42;49.30;99.90
21216;DHT22;10765;50.954;5.322;2023-09-08T13:00:10;49.20;99.90
21216;DHT22;10765;50.954;5.322;2023-09-08T13:02:37;48.70;99.90
21216;DHT22;10765;50.954;5.322;2023-09-08T13:05:04;48.90;99.90
21216;DHT22;10765;50.954;5.322;2023-09-08T13:07:31;49.60;99.90
21216;DHT22;10765;50.954;5.322;2023-09-08T13:09:58;49.20;99.90
21216;DHT22;10765;50.954;5.322;2023-09-08T13:12:25;49.10;99.90
21216;DHT22;10765;50.954;5.322;2023-09-08T13:14:53;48.20;99.90
21216;DHT22;10765;50.954;5.322;2023-09-08T13:17:20;48.40;99.90
21216;DHT22;10765;50.954;5.322;2023-09-08T13:19:47;48.70;99.90
21216;DHT22;10765;50.954;5.322;2023-09-08T13:22:14;49.00;99.90
21216;DHT22;10765;50.954;5.322;2023-09-08T13:24:41;49.00;99.90
21216;DHT22;10765;50.954;5.322;2023-09-08T13:27:08;48.80;99.90
21216;DHT22;10765;50.954;5.322;2023-09-08T13:29:35;48.60;99.90
21216;DHT22;10765;50.954;5.322;2023-09-08T13:32:04;48.00;99.90
21216;DHT22;10765;50.954;5.322;2023-09-08T13:34:31;47.10;99.90
21216;DHT22;10765;50.954;5.322;2023-09-08T13:36:58;47.30;99.90
21216;DHT22;10765;50.954;5.322;2023-09-08T13:39:25;47.80;99.90
21216;DHT22;10765;50.954;5.322;2023-09-08T13:41:52;48.20;99.90
21216;DHT22;10765;50.954;5.322;2023-09-08T13:44:20;47.60;99.90
21216;DHT22;10765;50.954;5.322;2023-09-08T13:46:47;46.50;99.90
21216;DHT22;10765;50.954;5.322;2023-09-08T13:49:16;46.50;99.90
21216;DHT22;10765;50.954;5.322;2023-09-08T13:51:43;46.30;99.90
21216;DHT22;10765;50.954;5.322;2023-09-08T13:54:11;47.70;99.90
21216;DHT22;10765;50.954;5.322;2023-09-08T13:56:38;47.60;99.90
21216;DHT22;10765;50.954;5.322;2023-09-08T13:59:06;47.60;99.90
21216;DHT22;10765;50.954;5.322;2023-09-08T14:01:33;46.80;99.90
21216;DHT22;10765;50.954;5.322;2023-09-08T14:04:00;46.60;99.90
21216;DHT22;10765;50.954;5.322;2023-09-08T14:06:29;46.00;99.90
21216;DHT22;10765;50.954;5.322;2023-09-08T14:08:56;45.70;99.90
21216;DHT22;10765;50.954;5.322;2023-09-08T14:11:23;41.70;99.90
21216;DHT22;10765;50.954;5.322;2023-09-08T14:13:50;38.40;99.90
21216;DHT22;10765;50.954;5.322;2023-09-08T14:16:18;35.60;99.90
21216;DHT22;10765;50.954;5.322;2023-09-08T14:18:45;34.30;1.00
21216;DHT22;10765;50.954;5.322;2023-09-08T14:21:12;33.50;1.00
21216;DHT22;10765;50.954;5.322;2023-09-08T14:23:40;33.30;1.00
21216;DHT22;10765;50.954;5.322;2023-09-08T14:26:07;33.10;1.00
21216;DHT22;10765;50.954;5.322;2023-09-08T14:28:34;33.20;1.00
21216;DHT22;10765;50.954;5.322;2023-09-08T14:31:02;33.00;1.00
21216;DHT22;10765;50.954;5.322;2023-09-08T14:33:29;32.90;1.00
21216;DHT22;10765;50.954;5.322;2023-09-08T14:35:56;32.50;1.00
21216;DHT22;10765;50.954;5.322;2023-09-08T14:38:23;32.60;1.00
21216;DHT22;10765;50.954;5.322;2023-09-08T14:40:59;32.60;1.00
21216;DHT22;10765;50.954;5.322;2023-09-08T14:43:27;32.60;1.00
21216;DHT22;10765;50.954;5.322;2023-09-08T14:45:55;32.30;1.00
21216;DHT22;10765;50.954;5.322;2023-09-08T14:48:23;32.20;1.00
21216;DHT22;10765;50.954;5.322;2023-09-08T14:50:50;32.20;1.00
21216;DHT22;10765;50.954;5.322;2023-09-08T14:53:17;32.00;1.00
21216;DHT22;10765;50.954;5.322;2023-09-08T14:55:44;32.00;1.00
21216;DHT22;10765;50.954;5.322;2023-09-08T14:58:15;31.90;1.00
21216;DHT22;10765;50.954;5.322;2023-09-08T15:00:42;31.90;1.00
21216;DHT22;10765;50.954;5.322;2023-09-08T15:03:09;31.80;1.00
21216;DHT22;10765;50.954;5.322;2023-09-08T15:05:36;31.80;1.00
21216;DHT22;10765;50.954;5.322;2023-09-08T15:08:03;31.70;1.00
21216;DHT22;10765;50.954;5.322;2023-09-08T15:10:30;31.70;1.00
21216;DHT22;10765;50.954;5.322;2023-09-08T15:12:57;31.60;1.00
21216;DHT22;10765;50.954;5.322;2023-09-08T15:15:25;31.70;1.00
21216;DHT22;10765;50.954;5.322;2023-09-08T15:17:52;31.60;1.00
21216;DHT22;10765;50.954;5.322;2023-09-08T15:20:20;31.30;1.00
21216;DHT22;10765;50.954;5.322;2023-09-08T15:22:48;31.10;1.00
21216;DHT22;10765;50.954;5.322;2023-09-08T15:25:16;31.10;1.00
21216;DHT22;10765;50.954;5.322;2023-09-08T15:27:43;31.20;1.00
21216;DHT22;10765;50.954;5.322;2023-09-08T15:30:12;31.40;1.00
21216;DHT22;10765;50.954;5.322;2023-09-08T15:32:41;31.30;1.00
21216;DHT22;10765;50.954;5.322;2023-09-08T15:35:08;31.20;1.00
21216;DHT22;10765;50.954;5.322;2023-09-08T15:37:35;31.30;1.00
21216;DHT22;10765;50.954;5.322;2023-09-08T15:40:03;31.10;1.00
21216;DHT22;10765;50.954;5.322;2023-09-08T15:42:30;30.80;1.00
21216;DHT22;10765;50.954;5.322;2023-09-08T15:44:57;30.70;1.00